sensor_id;sensor_type;location;lat;lon;timestamp;P1;durP1;ratioP1;P2;durP2;ratioP2
44572;SDS011;31762;45.420;10.072;2022-09-01T00:00:58;1.00;;;0.80;;
44572;SDS011;31762;45.420;10.072;2022-09-01T00:05:59;1.60;;;0.98;;
44572;SDS011;31762;45.420;10.072;2022-09-01T00:11:01;1.38;;;1.00;;
44572;SDS011;31762;45.420;10.072;2022-09-01T00:16:03;1.80;;;0.87;;
44572;SDS011;31762;45.420;10.072;2022-09-01T00:21:05;1.40;;;0.87;;
44572;SDS011;31762;45.420;10.072;2022-09-01T00:26:07;1.10;;;0.90;;
44572;SDS011;31762;45.420;10.072;2022-09-01T00:31:09;1.25;;;0.80;;
44572;SDS011;31762;45.420;10.072;2022-09-01T00:36:11;2.20;;;0.97;;
44572;SDS011;31762;45.420;10.072;2022-09-01T00:41:13;1.47;;;0.90;;
44572;SDS011;31762;45.420;10.072;2022-09-01T00:46:19;1.30;;;0.90;;
44572;SDS011;31762;45.420;10.072;2022-09-01T00:51:29;1.25;;;0.90;;
44572;SDS011;31762;45.420;10.072;2022-09-01T00:56:33;1.20;;;0.90;;
44572;SDS011;31762;45.420;10.072;2022-09-01T01:01:38;2.40;;;1.60;;
44572;SDS011;31762;45.420;10.072;2022-09-01T01:06:43;2.67;;;1.30;;
44572;SDS011;31762;45.420;10.072;2022-09-01T01:11:47;1.67;;;1.03;;
44572;SDS011;31762;45.420;10.072;2022-09-01T01:16:49;2.17;;;1.43;;
44572;SDS011;31762;45.420;10.072;2022-09-01T01:21:51;2.37;;;1.77;;
44572;SDS011;31762;45.420;10.072;2022-09-01T01:26:53;2.43;;;1.50;;
44572;SDS011;31762;45.420;10.072;2022-09-01T01:31:55;1.67;;;1.20;;
44572;SDS011;31762;45.420;10.072;2022-09-01T01:36:57;1.17;;;0.87;;
44572;SDS011;31762;45.420;10.072;2022-09-01T01:41:59;1.60;;;1.10;;
44572;SDS011;31762;45.420;10.072;2022-09-01T01:47:01;1.55;;;0.95;;
44572;SDS011;31762;45.420;10.072;2022-09-01T01:52:03;3.20;;;1.00;;
44572;SDS011;31762;45.420;10.072;2022-09-01T01:57:08;1.50;;;0.93;;
44572;SDS011;31762;45.420;10.072;2022-09-01T02:02:09;1.15;;;0.90;;
44572;SDS011;31762;45.420;10.072;2022-09-01T02:07:12;2.72;;;0.95;;
44572;SDS011;31762;45.420;10.072;2022-09-01T02:12:14;1.40;;;0.67;;
44572;SDS011;31762;45.420;10.072;2022-09-01T02:17:16;1.60;;;0.90;;
44572;SDS011;31762;45.420;10.072;2022-09-01T02:22:18;1.50;;;1.00;;
44572;SDS011;31762;45.420;10.072;2022-09-01T02:27:20;1.80;;;1.35;;
44572;SDS011;31762;45.420;10.072;2022-09-01T02:32:21;2.97;;;1.40;;
44572;SDS011;31762;45.420;10.072;2022-09-01T02:37:23;4.57;;;1.77;;
44572;SDS011;31762;45.420;10.072;2022-09-01T02:42:25;1.97;;;1.17;;
44572;SDS011;31762;45.420;10.072;2022-09-01T02:47:27;2.17;;;0.98;;
44572;SDS011;31762;45.420;10.072;2022-09-01T02:52:29;2.13;;;1.20;;
44572;SDS011;31762;45.420;10.072;2022-09-01T02:57:31;2.03;;;1.30;;
44572;SDS011;31762;45.420;10.072;2022-09-01T03:02:33;1.80;;;1.15;;
44572;SDS011;31762;45.420;10.072;2022-09-01T03:07:35;1.98;;;1.30;;
44572;SDS011;31762;45.420;10.072;2022-09-01T03:12:37;2.00;;;1.17;;
44572;SDS011;31762;45.420;10.072;2022-09-01T03:17:38;1.60;;;0.95;;
44572;SDS011;31762;45.420;10.072;2022-09-01T03:22:40;1.67;;;1.30;;
44572;SDS011;31762;45.420;10.072;2022-09-01T03:27:42;1.73;;;1.27;;
44572;SDS011;31762;45.420;10.072;2022-09-01T03:32:45;1.40;;;1.00;;
44572;SDS011;31762;45.420;10.072;2022-09-01T03:37:46;1.43;;;1.10;;
44572;SDS011;31762;45.420;10.072;2022-09-01T03:42:48;1.50;;;1.20;;
44572;SDS011;31762;45.420;10.072;2022-09-01T03:47:53;1.10;;;1.00;;
44572;SDS011;31762;45.420;10.072;2022-09-01T03:52:57;1.30;;;1.10;;
44572;SDS011;31762;45.420;10.072;2022-09-01T03:58:00;2.30;;;0.70;;
44572;SDS011;31762;45.420;10.072;2022-09-01T04:03:05;1.23;;;0.70;;
44572;SDS011;31762;45.420;10.072;2022-09-01T04:08:09;1.40;;;0.97;;
44572;SDS011;31762;45.420;10.072;2022-09-01T04:13:12;1.40;;;0.90;;
44572;SDS011;31762;45.420;10.072;2022-09-01T04:18:15;1.83;;;0.93;;
44572;SDS011;31762;45.420;10.072;2022-09-01T04:23:19;1.17;;;0.70;;
44572;SDS011;31762;45.420;10.072;2022-09-01T04:28:24;2.35;;;0.90;;
44572;SDS011;31762;45.420;10.072;2022-09-01T04:33:30;1.30;;;0.80;;
44572;SDS011;31762;45.420;10.072;2022-09-01T04:38:33;1.67;;;1.20;;
44572;SDS011;31762;45.420;10.072;2022-09-01T04:43:35;2.08;;;1.10;;
44572;SDS011;31762;45.420;10.072;2022-09-01T04:48:36;3.85;;;0.90;;
44572;SDS011;31762;45.420;10.072;2022-09-01T04:53:38;2.70;;;1.40;;
44572;SDS011;31762;45.420;10.072;2022-09-01T04:58:40;2.90;;;1.13;;
44572;SDS011;31762;45.420;10.072;2022-09-01T05:03:42;3.15;;;1.25;;
44572;SDS011;31762;45.420;10.072;2022-09-01T05:08:44;1.93;;;1.37;;
44572;SDS011;31762;45.420;10.072;2022-09-01T05:13:47;1.88;;;1.30;;
44572;SDS011;31762;45.420;10.072;2022-09-01T05:18:49;1.40;;;0.80;;
44572;SDS011;31762;45.420;10.072;2022-09-01T05:23:51;1.30;;;0.95;;
44572;SDS011;31762;45.420;10.072;2022-09-01T05:28:55;1.97;;;1.17;;
44572;SDS011;31762;45.420;10.072;2022-09-01T05:34:02;1.70;;;0.93;;
44572;SDS011;31762;45.420;10.072;2022-09-01T05:39:05;3.03;;;0.98;;
44572;SDS011;31762;45.420;10.072;2022-09-01T05:44:10;2.70;;;1.30;;
44572;SDS011;31762;45.420;10.072;2022-09-01T05:49:12;3.07;;;1.20;;
44572;SDS011;31762;45.420;10.072;2022-09-01T05:54:15;2.33;;;0.97;;
44572;SDS011;31762;45.420;10.072;2022-09-01T05:59:17;1.50;;;0.77;;
44572;SDS011;31762;45.420;10.072;2022-09-01T06:04:25;1.10;;;0.88;;
44572;SDS011;31762;45.420;10.072;2022-09-01T06:09:27;1.45;;;1.23;;
44572;SDS011;31762;45.420;10.072;2022-09-01T06:14:28;1.50;;;1.10;;
44572;SDS011;31762;45.420;10.072;2022-09-01T06:19:30;1.90;;;0.90;;
44572;SDS011;31762;45.420;10.072;2022-09-01T06:24:37;1.40;;;1.15;;
44572;SDS011;31762;45.420;10.072;2022-09-01T06:29:39;1.40;;;1.00;;
44572;SDS011;31762;45.420;10.072;2022-09-01T06:34:42;1.10;;;0.85;;
44572;SDS011;31762;45.420;10.072;2022-09-01T06:39:44;1.42;;;1.00;;
44572;SDS011;31762;45.420;10.072;2022-09-01T06:44:46;3.05;;;1.50;;
44572;SDS011;31762;45.420;10.072;2022-09-01T06:49:48;2.27;;;1.10;;
44572;SDS011;31762;45.420;10.072;2022-09-01T06:54:50;4.05;;;1.42;;
44572;SDS011;31762;45.420;10.072;2022-09-01T06:59:52;3.22;;;1.50;;
44572;SDS011;31762;45.420;10.072;2022-09-01T07:04:54;2.60;;;1.13;;
44572;SDS011;31762;45.420;10.072;2022-09-01T07:09:56;3.00;;;1.10;;
44572;SDS011;31762;45.420;10.072;2022-09-01T07:15:17;1.58;;;1.20;;
44572;SDS011;31762;45.420;10.072;2022-09-01T07:20:39;2.90;;;1.50;;
44572;SDS011;31762;45.420;10.072;2022-09-01T07:26:03;3.40;;;1.40;;
44572;SDS011;31762;45.420;10.072;2022-09-01T07:31:06;3.80;;;1.40;;
44572;SDS011;31762;45.420;10.072;2022-09-01T07:36:28;2.27;;;1.77;;
44572;SDS011;31762;45.420;10.072;2022-09-01T07:41:30;2.20;;;1.70;;
44572;SDS011;31762;45.420;10.072;2022-09-01T07:46:52;2.88;;;1.25;;
44572;SDS011;31762;45.420;10.072;2022-09-01T07:52:14;2.17;;;1.40;;
44572;SDS011;31762;45.420;10.072;2022-09-01T07:57:22;2.10;;;1.33;;
44572;SDS011;31762;45.420;10.072;2022-09-01T08:02:24;2.00;;;1.05;;
44572;SDS011;31762;45.420;10.072;2022-09-01T08:07:26;1.35;;;0.95;;
44572;SDS011;31762;45.420;10.072;2022-09-01T08:12:28;5.97;;;1.10;;
44572;SDS011;31762;45.420;10.072;2022-09-01T08:17:29;1.17;;;0.83;;
44572;SDS011;31762;45.420;10.072;2022-09-01T08:22:51;1.80;;;1.50;;
44572;SDS011;31762;45.420;10.072;2022-09-01T08:27:53;2.60;;;1.20;;
44572;SDS011;31762;45.420;10.072;2022-09-01T08:33:02;1.67;;;1.10;;
44572;SDS011;31762;45.420;10.072;2022-09-01T08:38:11;4.60;;;1.40;;
44572;SDS011;31762;45.420;10.072;2022-09-01T08:48:31;0.77;;;0.50;;
44572;SDS011;31762;45.420;10.072;2022-09-01T08:58:59;1.27;;;0.60;;
44572;SDS011;31762;45.420;10.072;2022-09-01T09:09:32;1.83;;;0.90;;
44572;SDS011;31762;45.420;10.072;2022-09-01T09:14:56;2.28;;;1.00;;
44572;SDS011;31762;45.420;10.072;2022-09-01T09:20:28;1.40;;;0.80;;
44572;SDS011;31762;45.420;10.072;2022-09-01T09:25:29;1.23;;;0.90;;
44572;SDS011;31762;45.420;10.072;2022-09-01T09:30:31;1.05;;;0.60;;
44572;SDS011;31762;45.420;10.072;2022-09-01T09:35:40;1.10;;;0.50;;
44572;SDS011;31762;45.420;10.072;2022-09-01T09:51:48;0.60;;;0.38;;
44572;SDS011;31762;45.420;10.072;2022-09-01T10:02:35;6.80;;;0.80;;
44572;SDS011;31762;45.420;10.072;2022-09-01T10:07:39;1.60;;;0.40;;
44572;SDS011;31762;45.420;10.072;2022-09-01T10:12:41;0.70;;;0.47;;
44572;SDS011;31762;45.420;10.072;2022-09-01T10:17:43;2.90;;;0.88;;
44572;SDS011;31762;45.420;10.072;2022-09-01T10:22:45;1.10;;;0.70;;
44572;SDS011;31762;45.420;10.072;2022-09-01T10:27:54;0.80;;;0.50;;
44572;SDS011;31762;45.420;10.072;2022-09-01T10:32:59;1.07;;;0.50;;
44572;SDS011;31762;45.420;10.072;2022-09-01T10:38:20;0.70;;;0.50;;
44572;SDS011;31762;45.420;10.072;2022-09-01T10:48:54;0.77;;;0.50;;
44572;SDS011;31762;45.420;10.072;2022-09-01T10:54:04;0.93;;;0.60;;
44572;SDS011;31762;45.420;10.072;2022-09-01T10:59:08;1.05;;;0.50;;
44572;SDS011;31762;45.420;10.072;2022-09-01T11:05:34;0.87;;;0.60;;
44572;SDS011;31762;45.420;10.072;2022-09-01T11:10:26;0.80;;;0.50;;
44572;SDS011;31762;45.420;10.072;2022-09-01T11:15:53;0.75;;;0.50;;
44572;SDS011;31762;45.420;10.072;2022-09-01T11:21:22;0.93;;;0.75;;
44572;SDS011;31762;45.420;10.072;2022-09-01T11:31:39;2.50;;;0.85;;
44572;SDS011;31762;45.420;10.072;2022-09-01T11:41:49;1.50;;;0.60;;
44572;SDS011;31762;45.420;10.072;2022-09-01T11:47:01;0.97;;;0.87;;
44572;SDS011;31762;45.420;10.072;2022-09-01T11:52:16;1.00;;;0.60;;
44572;SDS011;31762;45.420;10.072;2022-09-01T12:02:28;2.00;;;0.73;;
44572;SDS011;31762;45.420;10.072;2022-09-01T12:07:38;2.65;;;0.50;;
44572;SDS011;31762;45.420;10.072;2022-09-01T12:12:43;1.80;;;0.47;;
44572;SDS011;31762;45.420;10.072;2022-09-01T12:17:45;0.77;;;0.60;;
44572;SDS011;31762;45.420;10.072;2022-09-01T12:22:47;0.87;;;0.40;;
44572;SDS011;31762;45.420;10.072;2022-09-01T12:27:49;0.77;;;0.50;;
44572;SDS011;31762;45.420;10.072;2022-09-01T12:32:52;0.83;;;0.40;;
44572;SDS011;31762;45.420;10.072;2022-09-01T12:43:35;0.60;;;0.43;;
44572;SDS011;31762;45.420;10.072;2022-09-01T12:48:39;0.70;;;0.30;;
44572;SDS011;31762;45.420;10.072;2022-09-01T12:53:48;1.40;;;0.50;;
44572;SDS011;31762;45.420;10.072;2022-09-01T12:59:02;0.90;;;0.50;;
44572;SDS011;31762;45.420;10.072;2022-09-01T13:09:22;1.92;;;0.50;;
44572;SDS011;31762;45.420;10.072;2022-09-01T13:14:23;0.90;;;0.50;;
44572;SDS011;31762;45.420;10.072;2022-09-01T13:19:25;0.38;;;0.17;;
44572;SDS011;31762;45.420;10.072;2022-09-01T13:24:30;0.90;;;0.70;;
44572;SDS011;31762;45.420;10.072;2022-09-01T13:29:33;0.80;;;0.30;;
44572;SDS011;31762;45.420;10.072;2022-09-01T13:34:35;1.10;;;0.53;;
44572;SDS011;31762;45.420;10.072;2022-09-01T13:39:36;0.68;;;0.35;;
44572;SDS011;31762;45.420;10.072;2022-09-01T13:44:38;0.70;;;0.40;;
44572;SDS011;31762;45.420;10.072;2022-09-01T13:49:40;0.22;;;0.17;;
44572;SDS011;31762;45.420;10.072;2022-09-01T13:55:02;0.20;;;0.10;;
44572;SDS011;31762;45.420;10.072;2022-09-01T14:00:06;1.15;;;0.55;;
44572;SDS011;31762;45.420;10.072;2022-09-01T14:05:11;0.97;;;0.70;;
44572;SDS011;31762;45.420;10.072;2022-09-01T14:10:13;0.77;;;0.60;;
44572;SDS011;31762;45.420;10.072;2022-09-01T14:15:16;0.90;;;0.50;;
44572;SDS011;31762;45.420;10.072;2022-09-01T14:20:30;1.60;;;0.40;;
44572;SDS011;31762;45.420;10.072;2022-09-01T14:25:40;0.55;;;0.40;;
44572;SDS011;31762;45.420;10.072;2022-09-01T14:30:50;2.60;;;0.40;;
44572;SDS011;31762;45.420;10.072;2022-09-01T14:35:50;0.75;;;0.50;;
44572;SDS011;31762;45.420;10.072;2022-09-01T14:40:52;1.87;;;0.50;;
44572;SDS011;31762;45.420;10.072;2022-09-01T14:46:01;1.20;;;0.45;;
44572;SDS011;31762;45.420;10.072;2022-09-01T14:51:05;1.08;;;0.30;;
44572;SDS011;31762;45.420;10.072;2022-09-01T14:56:07;0.60;;;0.30;;
44572;SDS011;31762;45.420;10.072;2022-09-01T15:01:09;0.95;;;0.28;;
44572;SDS011;31762;45.420;10.072;2022-09-01T15:06:31;0.43;;;0.20;;
44572;SDS011;31762;45.420;10.072;2022-09-01T15:11:33;2.40;;;0.70;;
44572;SDS011;31762;45.420;10.072;2022-09-01T15:16:39;0.10;;;0.10;;
44572;SDS011;31762;45.420;10.072;2022-09-01T15:21:42;1.50;;;0.10;;
44572;SDS011;31762;45.420;10.072;2022-09-01T15:26:46;0.68;;;0.30;;
44572;SDS011;31762;45.420;10.072;2022-09-01T15:31:48;0.63;;;0.23;;
44572;SDS011;31762;45.420;10.072;2022-09-01T15:36:50;0.65;;;0.20;;
44572;SDS011;31762;45.420;10.072;2022-09-01T15:41:51;0.47;;;0.30;;
44572;SDS011;31762;45.420;10.072;2022-09-01T15:46:53;0.40;;;0.10;;
44572;SDS011;31762;45.420;10.072;2022-09-01T15:51:55;0.30;;;0.10;;
44572;SDS011;31762;45.420;10.072;2022-09-01T15:56:57;0.20;;;0.20;;
44572;SDS011;31762;45.420;10.072;2022-09-01T16:01:59;0.22;;;0.15;;
44572;SDS011;31762;45.420;10.072;2022-09-01T16:07:01;0.80;;;0.22;;
44572;SDS011;31762;45.420;10.072;2022-09-01T16:12:03;0.22;;;0.20;;
44572;SDS011;31762;45.420;10.072;2022-09-01T16:17:15;1.40;;;0.30;;
44572;SDS011;31762;45.420;10.072;2022-09-01T16:27:39;1.05;;;0.55;;
44572;SDS011;31762;45.420;10.072;2022-09-01T16:32:43;0.57;;;0.45;;
44572;SDS011;31762;45.420;10.072;2022-09-01T16:48:59;1.50;;;0.80;;
44572;SDS011;31762;45.420;10.072;2022-09-01T17:04:57;1.10;;;0.50;;
44572;SDS011;31762;45.420;10.072;2022-09-01T17:15:38;1.23;;;0.73;;
44572;SDS011;31762;45.420;10.072;2022-09-01T17:20:45;2.28;;;0.77;;
44572;SDS011;31762;45.420;10.072;2022-09-01T17:26:02;1.40;;;0.80;;
44572;SDS011;31762;45.420;10.072;2022-09-01T17:31:21;2.63;;;1.40;;
44572;SDS011;31762;45.420;10.072;2022-09-01T17:42:03;0.68;;;0.50;;
44572;SDS011;31762;45.420;10.072;2022-09-01T17:58:14;0.93;;;0.30;;
44572;SDS011;31762;45.420;10.072;2022-09-01T18:03:23;1.65;;;0.30;;
44572;SDS011;31762;45.420;10.072;2022-09-01T18:13:45;1.95;;;0.63;;
44572;SDS011;31762;45.420;10.072;2022-09-01T18:19:16;2.97;;;0.50;;
44572;SDS011;31762;45.420;10.072;2022-09-01T18:24:25;1.30;;;0.50;;
44572;SDS011;31762;45.420;10.072;2022-09-01T18:29:33;3.10;;;0.60;;
44572;SDS011;31762;45.420;10.072;2022-09-01T18:45:08;0.65;;;0.35;;
44572;SDS011;31762;45.420;10.072;2022-09-01T18:50:19;1.40;;;0.47;;
44572;SDS011;31762;45.420;10.072;2022-09-01T19:01:11;1.55;;;0.50;;
44572;SDS011;31762;45.420;10.072;2022-09-01T19:16:53;0.67;;;0.43;;
44572;SDS011;31762;45.420;10.072;2022-09-01T19:22:13;1.80;;;0.70;;
44572;SDS011;31762;45.420;10.072;2022-09-01T19:27:27;0.90;;;0.70;;
44572;SDS011;31762;45.420;10.072;2022-09-01T19:32:32;1.00;;;0.50;;
44572;SDS011;31762;45.420;10.072;2022-09-01T19:37:35;1.05;;;0.70;;
44572;SDS011;31762;45.420;10.072;2022-09-01T19:42:44;1.43;;;0.80;;
44572;SDS011;31762;45.420;10.072;2022-09-01T19:53:52;2.40;;;0.70;;
44572;SDS011;31762;45.420;10.072;2022-09-01T20:19:46;1.10;;;0.90;;
44572;SDS011;31762;45.420;10.072;2022-09-01T20:24:56;2.88;;;0.70;;
44572;SDS011;31762;45.420;10.072;2022-09-01T20:30:07;1.00;;;0.90;;
44572;SDS011;31762;45.420;10.072;2022-09-01T20:35:14;2.05;;;0.50;;
44572;SDS011;31762;45.420;10.072;2022-09-01T20:40:22;2.47;;;1.05;;
44572;SDS011;31762;45.420;10.072;2022-09-01T20:45:34;1.15;;;0.60;;
44572;SDS011;31762;45.420;10.072;2022-09-01T20:50:39;1.60;;;0.95;;
44572;SDS011;31762;45.420;10.072;2022-09-01T21:06:41;1.52;;;0.95;;
44572;SDS011;31762;45.420;10.072;2022-09-01T21:22:32;3.10;;;0.80;;
44572;SDS011;31762;45.420;10.072;2022-09-01T21:27:47;1.23;;;0.90;;
44572;SDS011;31762;45.420;10.072;2022-09-01T21:32:53;2.80;;;0.70;;
44572;SDS011;31762;45.420;10.072;2022-09-01T21:37:55;1.60;;;0.90;;
44572;SDS011;31762;45.420;10.072;2022-09-01T21:43:00;1.20;;;0.60;;
44572;SDS011;31762;45.420;10.072;2022-09-01T21:48:04;2.47;;;0.70;;
44572;SDS011;31762;45.420;10.072;2022-09-01T21:53:07;1.25;;;0.63;;
44572;SDS011;31762;45.420;10.072;2022-09-01T21:58:09;1.60;;;0.80;;
44572;SDS011;31762;45.420;10.072;2022-09-01T22:03:11;1.20;;;0.70;;
44572;SDS011;31762;45.420;10.072;2022-09-01T22:08:13;2.17;;;0.63;;
44572;SDS011;31762;45.420;10.072;2022-09-01T22:13:16;2.10;;;1.00;;
44572;SDS011;31762;45.420;10.072;2022-09-01T22:18:20;1.10;;;0.80;;
44572;SDS011;31762;45.420;10.072;2022-09-01T22:23:22;1.20;;;0.80;;
44572;SDS011;31762;45.420;10.072;2022-09-01T22:28:24;1.15;;;0.65;;
44572;SDS011;31762;45.420;10.072;2022-09-01T22:33:26;1.20;;;0.88;;
44572;SDS011;31762;45.420;10.072;2022-09-01T22:38:30;1.05;;;0.80;;
44572;SDS011;31762;45.420;10.072;2022-09-01T22:43:32;1.20;;;0.60;;
44572;SDS011;31762;45.420;10.072;2022-09-01T22:48:34;2.50;;;0.80;;
44572;SDS011;31762;45.420;10.072;2022-09-01T22:53:36;1.40;;;0.80;;
44572;SDS011;31762;45.420;10.072;2022-09-01T22:58:40;2.40;;;0.77;;
44572;SDS011;31762;45.420;10.072;2022-09-01T23:03:42;1.37;;;0.87;;
44572;SDS011;31762;45.420;10.072;2022-09-01T23:08:45;3.60;;;1.20;;
44572;SDS011;31762;45.420;10.072;2022-09-01T23:13:47;1.90;;;0.90;;
44572;SDS011;31762;45.420;10.072;2022-09-01T23:18:49;1.38;;;0.88;;
44572;SDS011;31762;45.420;10.072;2022-09-01T23:23:52;1.88;;;0.95;;
44572;SDS011;31762;45.420;10.072;2022-09-01T23:28:59;1.27;;;0.80;;
44572;SDS011;31762;45.420;10.072;2022-09-01T23:34:02;1.90;;;1.20;;
44572;SDS011;31762;45.420;10.072;2022-09-01T23:39:06;0.87;;;0.73;;
44572;SDS011;31762;45.420;10.072;2022-09-01T23:44:09;1.03;;;0.70;;
44572;SDS011;31762;45.420;10.072;2022-09-01T23:49:12;3.38;;;0.70;;
44572;SDS011;31762;45.420;10.072;2022-09-01T23:54:16;1.30;;;0.80;;
44572;SDS011;31762;45.420;10.072;2022-09-01T23:59:18;1.33;;;0.73;;
